Time;durP1;ratioP1;P1;durP2;ratioP2;P2;SDS_P1;SDS_P2;PMS_P1;PMS_P2;Temp;Humidity;BMP_temperature;BMP_pressure;BME280_temperature;BME280_humidity;BME280_pressure;Samples;Min_cycle;Max_cycle;Signal;HPM_P1;HPM_P2
2024/03/10 00:00:08;;;;;;;0.50;0.50;;;;;;;8.41;57.49;94786.22;29396;212;63014;-57
2024/03/10 00:00:40;;;;;;;0.50;0.50;;;;;;;8.39;57.25;94788.47;29395;345;64013;-59
2024/03/10 00:01:12;;;;;;;0.50;0.50;;;;;;;8.37;57.06;94785.31;29396;244;63005;-58
2024/03/10 00:01:47;;;;;;;0.50;0.50;;;;;;;8.34;57.06;94781.34;29396;331;63009;-58
2024/03/10 00:02:18;;;;;;;0.50;0.50;;;;;;;8.34;57.67;94785.97;29396;210;63005;-57
2024/03/10 00:02:50;;;;;;;0.50;0.50;;;;;;;8.31;57.36;94786.63;29396;259;63009;-57
2024/03/10 00:03:22;;;;;;;0.50;0.50;;;;;;;8.30;57.65;94791.22;29396;256;63005;-57
2024/03/10 00:03:54;;;;;;;0.50;0.50;;;;;;;8.29;57.14;94788.84;29396;217;63009;-57
2024/03/10 00:04:26;;;;;;;0.50;0.50;;;;;;;8.28;57.10;94781.88;29396;237;63005;-57
2024/03/10 00:04:57;;;;;;;0.50;0.50;;;;;;;8.27;57.08;94783.00;29397;262;63009;-58
2024/03/10 00:05:31;;;;;;;0.50;0.50;;;;;;;8.28;56.72;94784.56;29395;251;64009;-58
2024/03/10 00:06:04;;;;;;;0.50;0.50;;;;;;;8.31;55.12;94778.50;29397;197;63009;-57
2024/03/10 00:06:35;;;;;;;1.75;1.75;;;;;;;8.32;55.15;94771.97;29397;220;63004;-57
2024/03/10 00:07:06;;;;;;;0.50;0.50;;;;;;;8.35;55.23;94776.75;29397;199;63009;-57
2024/03/10 00:07:42;;;;;;;0.50;0.50;;;;;;;8.36;55.21;94778.31;29397;261;63004;-58
2024/03/10 00:08:13;;;;;;;0.50;0.50;;;;;;;8.36;55.26;94772.91;29397;198;63008;-57
2024/03/10 00:08:44;;;;;;;0.50;0.50;;;;;;;8.37;55.63;94774.50;29395;264;63005;-57
2024/03/10 00:09:16;;;;;;;0.50;0.50;;;;;;;8.38;55.74;94778.78;29395;213;63009;-57
2024/03/10 00:09:49;;;;;;;0.50;0.50;;;;;;;8.38;55.81;94781.50;29395;338;63005;-57
2024/03/10 00:10:21;;;;;;;0.50;0.50;;;;;;;8.39;55.78;94783.06;29394;214;64013;-59
2024/03/10 00:10:53;;;;;;;0.50;0.50;;;;;;;8.39;56.00;94777.66;29395;267;63005;-58
2024/03/10 00:11:25;;;;;;;0.50;0.50;;;;;;;8.39;55.95;94777.66;29395;239;63009;-58
2024/03/10 00:11:56;;;;;;;0.50;0.50;;;;;;;8.41;56.00;94786.22;29395;196;63005;-58
2024/03/10 00:12:27;;;;;;;0.50;0.50;;;;;;;8.43;55.58;94777.81;29395;263;63013;-58
2024/03/10 00:12:59;;;;;;;0.50;0.50;;;;;;;8.43;55.28;94773.19;29395;196;63004;-58
2024/03/10 00:13:30;;;;;;;0.50;0.50;;;;;;;8.44;55.03;94769.38;29395;213;63009;-58
2024/03/10 00:14:03;;;;;;;0.50;0.50;;;;;;;8.44;55.46;94769.38;29395;237;63004;-58
2024/03/10 00:14:34;;;;;;;0.50;0.50;;;;;;;8.45;55.22;94775.56;29395;567;63009;-57
2024/03/10 00:15:08;;;;;;;0.50;0.50;;;;;;;8.44;55.64;94771.28;29395;350;63004;-59
2024/03/10 00:15:39;;;;;;;0.50;0.50;;;;;;;8.43;55.49;94770.47;29393;369;64013;-57
2024/03/10 00:16:11;;;;;;;0.50;0.50;;;;;;;8.43;55.66;94767.00;29395;235;63005;-58
2024/03/10 00:16:45;;;;;;;0.50;0.50;;;;;;;8.44;55.87;94773.97;29394;261;63009;-58
2024/03/10 00:17:17;;;;;;;0.50;0.50;;;;;;;8.43;56.21;94767.78;29395;266;63005;-58
2024/03/10 00:17:48;;;;;;;0.50;0.50;;;;;;;8.43;56.05;94772.41;29395;212;63009;-58
2024/03/10 00:19:28;;;;;;;0.50;0.50;;;;;;;8.43;56.04;94769.69;88174;246;64005;-57
2024/03/10 00:20:00;;;;;;;0.50;0.50;;;;;;;8.43;56.54;94770.47;29394;214;64009;-58
2024/03/10 00:20:33;;;;;;;0.50;0.50;;;;;;;8.42;56.42;94771.59;29395;251;63005;-58
2024/03/10 00:21:05;;;;;;;0.50;0.50;;;;;;;8.41;56.41;94775.44;29394;220;64014;-56
2024/03/10 00:21:36;;;;;;;0.50;0.50;;;;;;;8.41;56.51;94778.13;29395;213;63016;-58
2024/03/10 00:22:07;;;;;;;0.50;0.50;;;;;;;8.41;56.41;94780.84;29395;399;63009;-57
2024/03/10 00:22:41;;;;;;;0.50;0.50;;;;;;;8.42;56.44;94781.63;29395;237;63005;-57
2024/03/10 00:23:13;;;;;;;0.50;0.50;;;;;;;8.42;56.76;94781.63;29395;202;63009;-57
2024/03/10 00:23:44;;;;;;;0.50;0.50;;;;;;;8.43;56.56;94781.28;29395;232;63000;-58
2024/03/10 00:24:16;;;;;;;0.50;0.50;;;;;;;8.43;56.06;94773.19;29395;208;63009;-57
2024/03/10 00:24:49;;;;;;;0.50;0.50;;;;;;;8.45;55.96;94781.75;29395;226;63004;-58
2024/03/10 00:25:20;;;;;;;0.50;0.50;;;;;;;8.46;56.24;94774.44;29395;196;63009;-59
2024/03/10 00:25:51;;;;;;;0.50;0.50;;;;;;;8.47;56.67;94779.50;29395;234;63004;-58
2024/03/10 00:26:23;;;;;;;0.50;0.50;;;;;;;8.49;56.50;94777.28;29394;261;64013;-58
2024/03/10 00:26:55;;;;;;;0.50;0.50;;;;;;;8.49;56.96;94776.47;29395;203;63004;-58
2024/03/10 00:27:27;;;;;;;0.50;0.50;;;;;;;8.51;56.36;94772.34;29395;197;63009;-57
2024/03/10 00:27:58;;;;;;;0.50;0.50;;;;;;;8.52;56.46;94779.31;29395;237;63005;-59
2024/03/10 00:28:29;;;;;;;0.50;0.50;;;;;;;8.54;56.32;94776.28;29395;267;63009;-58
2024/03/10 00:29:01;;;;;;;0.50;0.50;;;;;;;8.55;56.66;94775.97;29395;319;63005;-58
2024/03/10 00:29:34;;;;;;;0.50;0.50;;;;;;;8.55;56.56;94781.38;29395;246;63009;-73
2024/03/10 00:30:09;;;;;;;0.50;0.50;;;;;;;8.56;56.75;94777.53;29395;239;63005;-57
2024/03/10 00:30:40;;;;;;;0.50;0.50;;;;;;;8.57;56.80;94773.72;29395;225;63009;-57
2024/03/10 00:31:12;;;;;;;0.50;0.50;;;;;;;8.58;56.09;94763.69;29395;309;63004;-58
2024/03/10 00:31:44;;;;;;;0.50;0.50;;;;;;;8.58;56.16;94769.09;29394;409;64013;-72
2024/03/10 00:32:15;;;;;;;0.50;0.50;;;;;;;8.57;56.22;94765.59;29395;430;63004;-58
2024/03/10 00:32:46;;;;;;;0.50;0.50;;;;;;;8.58;56.04;94769.09;29395;197;63009;-58
2024/03/10 00:33:19;;;;;;;0.50;0.50;;;;;;;8.57;56.45;94764.81;29394;428;64004;-58
2024/03/10 00:45:26;;;;;;;0.50;0.50;;;;;;;8.39;60.23;94772.25;88122;245;64004;-57
2024/03/10 00:45:57;;;;;;;0.50;0.50;;;;;;;8.39;59.64;94772.25;29394;208;64009;-58
2024/03/10 00:46:32;;;;;;;0.50;0.50;;;;;;;8.38;59.75;94776.09;29395;207;63015;-58
2024/03/10 00:47:04;;;;;;;0.50;0.50;;;;;;;8.37;59.40;94779.91;29395;199;63009;-58
2024/03/10 00:47:37;;;;;;;0.50;0.50;;;;;;;8.37;59.57;94771.78;29394;250;64009;-59
2024/03/10 00:48:08;;;;;;;0.50;0.50;;;;;;;8.34;59.63;94775.16;29395;197;63009;-59
2024/03/10 00:48:39;;;;;;;0.50;0.50;;;;;;;8.35;59.69;94776.75;29395;227;63004;-58
2024/03/10 00:49:11;;;;;;;0.50;0.50;;;;;;;8.32;59.25;94778.19;29395;244;63009;-58
2024/03/10 00:49:42;;;;;;;0.50;0.50;;;;;;;8.33;59.50;94773.56;29395;259;63004;-57
2024/03/10 00:50:15;;;;;;;0.50;0.50;;;;;;;8.34;59.17;94777.84;29395;215;63008;-58
2024/03/10 00:50:46;;;;;;;0.50;0.50;;;;;;;8.34;58.90;94775.16;29395;245;63005;-57
2024/03/10 00:51:18;;;;;;;0.50;0.50;;;;;;;8.34;58.76;94775.94;29395;251;63009;-58
2024/03/10 00:51:49;;;;;;;0.50;0.50;;;;;;;8.32;58.91;94761.97;29395;233;63005;-57
2024/03/10 00:52:20;;;;;;;0.50;0.50;;;;;;;8.32;59.04;94770.06;29395;313;63009;-58
2024/03/10 00:52:53;;;;;;;0.50;0.50;;;;;;;8.32;59.06;94771.97;29394;221;64009;-58
2024/03/10 00:53:24;;;;;;;0.50;0.50;;;;;;;8.33;59.47;94757.37;29394;240;64013;-58
2024/03/10 00:53:56;;;;;;;0.50;0.50;;;;;;;8.33;59.56;94768.16;29395;223;63004;-58
2024/03/10 00:54:27;;;;;;;0.50;0.50;;;;;;;8.33;59.29;94773.56;29395;236;63009;-57
2024/03/10 00:54:58;;;;;;;0.50;0.50;;;;;;;8.33;59.26;94768.97;29395;215;63013;-58
2024/03/10 00:55:29;;;;;;;0.50;0.50;;;;;;;8.32;59.40;94771.97;29395;218;63017;-59
2024/03/10 00:56:01;;;;;;;0.50;0.50;;;;;;;8.33;59.16;94770.88;29395;251;63004;-58
2024/03/10 00:56:32;;;;;;;0.50;0.50;;;;;;;8.31;59.20;94773.13;29395;196;63008;-58
2024/03/10 00:57:04;;;;;;;0.50;0.50;;;;;;;8.30;59.57;94768.81;29395;276;63004;-59
2024/03/10 00:57:37;;;;;;;0.50;0.50;;;;;;;8.29;59.54;94772.66;29395;202;63008;-59
2024/03/10 00:58:10;;;;;;;0.50;0.50;;;;;;;8.28;59.40;94771.06;29395;227;63005;-58
2024/03/10 00:58:42;;;;;;;0.50;0.50;;;;;;;8.26;59.96;94776.00;29394;242;64013;-58
2024/03/10 00:59:15;;;;;;;0.50;0.50;;;;;;;8.24;59.74;94772.84;29395;210;63005;-58
2024/03/10 00:59:47;;;;;;;0.50;0.50;;;;;;;8.22;59.63;94783.97;29395;236;63009;-58
2024/03/10 01:00:19;;;;;;;0.50;0.50;;;;;;;8.21;59.79;94781.59;29395;196;63005;-73
2024/03/10 01:00:51;;;;;;;0.50;0.50;;;;;;;8.19;59.74;94783.84;29395;236;63009;-58
2024/03/10 01:01:22;;;;;;;0.50;0.50;;;;;;;8.17;59.64;94775.28;29395;291;63004;-59
2024/03/10 01:01:55;;;;;;;0.50;0.50;;;;;;;8.16;59.84;94779.09;29395;251;63009;-58
2024/03/10 01:02:27;;;;;;;0.50;0.50;;;;;;;8.15;59.79;94782.91;29395;197;63004;-58
2024/03/10 01:03:02;;;;;;;0.50;0.50;;;;;;;8.13;59.52;94779.75;29395;223;63009;-58
2024/03/10 01:03:34;;;;;;;0.50;0.50;;;;;;;8.12;59.89;94778.94;29395;247;63004;-57
2024/03/10 01:04:06;;;;;;;0.50;0.50;;;;;;;8.12;59.65;94783.56;29394;278;64021;-59
2024/03/10 01:04:38;;;;;;;0.50;0.50;;;;;;;8.10;59.63;94780.41;29395;199;63005;-58
2024/03/10 01:05:09;;;;;;;0.50;0.50;;;;;;;8.10;59.33;94780.41;29395;242;63009;-59
2024/03/10 01:05:41;;;;;;;0.50;0.50;;;;;;;8.08;59.67;94778.81;29395;215;63001;-59
2024/03/10 01:06:13;;;;;;;0.57;0.57;;;;;;;8.07;59.67;94782.63;29395;203;63017;-58
2024/03/10 01:06:45;;;;;;;0.50;0.50;;;;;;;8.06;59.63;94786.44;29395;261;63005;-58
2024/03/10 01:07:16;;;;;;;0.50;0.50;;;;;;;8.05;59.58;94776.75;29395;253;63027;-58
2024/03/10 01:07:48;;;;;;;0.50;0.50;;;;;;;8.05;59.83;94774.06;29395;254;63005;-58
2024/03/10 01:08:19;;;;;;;0.50;0.50;;;;;;;8.04;59.88;94779.78;29395;199;63009;-58
2024/03/10 01:08:54;;;;;;;0.50;0.50;;;;;;;8.03;59.81;94776.31;29394;237;64004;-59
2024/03/10 01:09:27;;;;;;;0.50;0.50;;;;;;;8.07;59.66;94773.75;29394;222;64013;-58
2024/03/10 01:09:58;;;;;;;0.50;0.50;;;;;;;8.08;59.61;94772.63;29395;249;63015;-58
2024/03/10 01:10:31;;;;;;;0.50;0.50;;;;;;;8.08;59.59;94770.72;29394;252;64013;-58
2024/03/10 01:11:04;;;;;;;0.50;0.50;;;;;;;8.08;59.49;94773.41;29394;208;64009;-58
2024/03/10 01:11:40;;;;;;;0.50;0.50;;;;;;;8.10;59.25;94769.59;29395;226;63008;-58
2024/03/10 01:12:12;;;;;;;0.50;0.50;;;;;;;8.08;59.56;94773.41;29395;196;63005;-59
2024/03/10 01:12:44;;;;;;;0.50;0.50;;;;;;;8.11;59.53;94776.56;29395;251;63009;-58
2024/03/10 01:13:15;;;;;;;0.50;0.50;;;;;;;8.10;59.38;94769.59;29395;223;63005;-57
2024/03/10 01:13:46;;;;;;;0.50;0.50;;;;;;;8.10;59.51;94769.59;29395;216;63009;-58
2024/03/10 01:14:19;;;;;;;0.50;0.50;;;;;;;8.11;59.62;94768.47;29395;258;63005;-59
2024/03/10 01:14:50;;;;;;;0.50;0.50;;;;;;;8.08;59.37;94773.41;29395;225;63009;-58
2024/03/10 01:15:21;;;;;;;0.50;0.50;;;;;;;8.08;59.73;94778.81;29395;230;63005;-58
2024/03/10 01:15:54;;;;;;;0.50;0.50;;;;;;;8.08;60.17;94773.41;29394;237;64013;-58
2024/03/10 01:16:25;;;;;;;0.50;0.50;;;;;;;8.07;60.28;94771.81;29394;263;64009;-59
2024/03/10 01:16:57;;;;;;;0.50;0.50;;;;;;;8.06;59.91;94759.44;29395;225;63009;-58
2024/03/10 01:17:28;;;;;;;0.50;0.50;;;;;;;8.06;60.14;94770.25;29395;227;63004;-59
2024/03/10 01:18:00;;;;;;;0.50;0.50;;;;;;;8.05;60.00;94767.88;29395;273;63009;-60
2024/03/10 01:18:31;;;;;;;0.50;0.50;;;;;;;8.05;60.40;94762.47;29395;226;63004;-59
2024/03/10 01:19:03;;;;;;;0.50;0.50;;;;;;;8.04;60.63;94767.09;29395;257;63008;-59
2024/03/10 01:19:35;;;;;;;0.50;0.50;;;;;;;8.04;60.72;94764.37;29395;256;63004;-58
2024/03/10 01:20:08;;;;;;;0.50;0.50;;;;;;;8.04;60.67;94766.28;29395;207;63009;-58
2024/03/10 01:20:39;;;;;;;0.50;0.50;;;;;;;8.07;60.79;94771.03;29395;259;63005;-71
2024/03/10 01:21:11;;;;;;;0.55;0.55;;;;;;;8.04;60.97;94764.37;29395;237;63009;-57
2024/03/10 01:21:45;;;;;;;0.50;0.50;;;;;;;8.04;60.78;94763.59;29394;218;64009;-57
2024/03/10 01:22:17;;;;;;;0.50;0.50;;;;;;;8.03;60.73;94760.09;29395;218;63026;-57
2024/03/10 01:22:49;;;;;;;0.50;0.50;;;;;;;8.04;60.54;94760.88;29394;197;64009;-57
2024/03/10 01:23:20;;;;;;;0.50;0.50;;;;;;;8.04;60.65;94755.47;29395;232;63009;-57
2024/03/10 01:23:52;;;;;;;0.50;0.50;;;;;;;8.04;60.78;94752.78;29395;262;63004;-57
2024/03/10 01:24:23;;;;;;;0.50;0.50;;;;;;;8.03;60.77;94760.09;29395;251;63009;-57
2024/03/10 01:24:54;;;;;;;0.50;0.50;;;;;;;8.04;60.59;94761.69;29395;202;63009;-57
2024/03/10 01:25:25;;;;;;;0.50;0.50;;;;;;;8.04;60.79;94760.88;29395;229;63009;-58
2024/03/10 01:25:57;;;;;;;0.55;0.55;;;;;;;8.03;60.83;94752.00;29395;228;63004;-59
2024/03/10 01:26:28;;;;;;;0.50;0.50;;;;;;;8.04;60.64;94755.47;29395;200;63008;-57
2024/03/10 01:27:00;;;;;;;0.50;0.50;;;;;;;8.04;60.94;94753.56;29395;237;63017;-58
2024/03/10 01:27:32;;;;;;;0.50;0.50;;;;;;;8.05;61.17;94752.47;29395;198;63015;-57
2024/03/10 01:28:07;;;;;;;0.50;0.50;;;;;;;8.07;61.08;94757.53;29394;217;64009;-57
2024/03/10 01:28:38;;;;;;;0.50;0.50;;;;;;;8.06;60.99;94759.44;29395;225;63009;-58
2024/03/10 01:29:09;;;;;;;0.50;0.50;;;;;;;8.06;60.93;94759.44;29395;199;63008;-56
2024/03/10 01:29:40;;;;;;;0.50;0.50;;;;;;;8.05;61.19;94763.25;29395;329;63009;-57
2024/03/10 01:30:13;;;;;;;0.50;0.50;;;;;;;8.05;60.99;94757.84;29395;314;63005;-58
2024/03/10 01:30:46;;;;;;;0.50;0.50;;;;;;;8.05;60.88;94755.16;29395;248;63009;-58
2024/03/10 01:31:18;;;;;;;0.50;0.50;;;;;;;8.05;61.11;94757.84;29395;205;63005;-59
2024/03/10 01:31:49;;;;;;;0.50;0.50;;;;;;;8.01;61.21;94751.53;29395;245;63009;-57
2024/03/10 01:32:20;;;;;;;0.50;0.50;;;;;;;8.04;61.29;94760.88;29395;211;63004;-58
2024/03/10 01:32:51;;;;;;;0.50;0.50;;;;;;;8.04;61.16;94761.69;29395;276;63009;-58
2024/03/10 01:33:26;;;;;;;0.50;0.50;;;;;;;8.02;61.43;94758.50;29394;221;64009;-58
2024/03/10 01:33:58;;;;;;;0.50;0.50;;;;;;;8.02;61.13;94758.50;29395;250;63008;-57
2024/03/10 01:34:30;;;;;;;0.50;0.50;;;;;;;8.02;61.42;94757.72;29395;264;63004;-57
2024/03/10 01:35:05;;;;;;;0.50;0.50;;;;;;;8.01;61.16;94756.94;29395;269;63009;-57
2024/03/10 01:35:36;;;;;;;0.50;0.50;;;;;;;8.02;61.24;94763.13;29395;221;63010;-57
2024/03/10 01:36:08;;;;;;;0.50;0.50;;;;;;;7.99;61.55;94751.06;29395;265;63009;-57
2024/03/10 01:36:39;;;;;;;0.50;0.50;;;;;;;8.01;61.06;94753.44;29395;214;63005;-57
2024/03/10 01:37:11;;;;;;;0.50;0.50;;;;;;;8.00;61.13;94749.94;29395;227;63009;-57
2024/03/10 01:37:42;;;;;;;0.50;0.50;;;;;;;7.99;61.16;94753.75;29395;200;63010;-57
2024/03/10 01:38:18;;;;;;;0.50;0.50;;;;;;;8.00;61.22;94751.84;29395;351;63009;-57
2024/03/10 01:38:50;;;;;;;0.50;0.50;;;;;;;8.01;61.69;94756.13;29394;227;64009;-57
2024/03/10 01:39:23;;;;;;;0.60;0.60;;;;;;;8.00;61.43;94749.16;29395;265;63009;-57
2024/03/10 01:39:55;;;;;;;0.50;0.50;;;;;;;8.00;61.47;94747.25;29395;226;63004;-57
2024/03/10 01:40:26;;;;;;;0.50;0.50;;;;;;;8.00;61.59;94747.25;29395;250;63015;-57
2024/03/10 01:40:57;;;;;;;0.50;0.50;;;;;;;7.99;61.66;94748.38;29395;214;63004;-56
2024/03/10 01:41:31;;;;;;;0.50;0.50;;;;;;;7.98;61.41;94744.06;29395;229;63024;-57
2024/03/10 01:42:05;;;;;;;0.50;0.50;;;;;;;7.97;61.49;94739.78;29395;249;63017;-58
2024/03/10 01:42:36;;;;;;;0.50;0.50;;;;;;;7.98;61.46;94743.28;29395;210;63025;-57
2024/03/10 01:43:08;;;;;;;0.50;0.50;;;;;;;8.00;61.51;94743.75;29395;234;63005;-58
2024/03/10 01:43:40;;;;;;;0.50;0.50;;;;;;;7.98;61.58;94735.97;29395;382;63009;-58
2024/03/10 01:44:12;;;;;;;0.50;0.50;;;;;;;7.99;61.52;94742.16;29394;232;64009;-60
2024/03/10 01:44:44;;;;;;;0.50;0.50;;;;;;;7.98;61.53;94735.97;29395;200;63009;-58
2024/03/10 01:45:15;;;;;;;0.50;0.50;;;;;;;8.00;61.64;94743.75;29395;232;63005;-57
2024/03/10 01:45:52;;;;;;;0.50;0.50;;;;;;;7.98;61.46;94741.37;29395;222;63009;-57
2024/03/10 01:46:25;;;;;;;0.50;0.50;;;;;;;7.99;61.62;94734.06;29395;281;63005;-59
2024/03/10 01:46:56;;;;;;;0.50;0.50;;;;;;;7.98;61.54;94730.56;29395;278;63016;-59
2024/03/10 01:47:28;;;;;;;0.50;0.50;;;;;;;7.96;61.35;94730.16;29395;242;63004;-59
2024/03/10 01:48:02;;;;;;;0.50;0.50;;;;;;;7.96;61.48;94735.53;29395;199;63009;-57
2024/03/10 01:48:39;;;;;;;0.50;0.50;;;;;;;7.96;61.61;94732.84;29395;263;63004;-59
2024/03/10 01:49:11;;;;;;;0.50;0.50;;;;;;;7.95;61.89;94736.66;29394;196;64013;-57
2024/03/10 01:49:42;;;;;;;0.50;0.50;;;;;;;7.95;61.75;94731.25;29395;234;63004;-57
2024/03/10 01:50:18;;;;;;;0.50;0.50;;;;;;;7.95;61.58;94731.25;29395;246;63009;-57
2024/03/10 01:50:49;;;;;;;0.50;0.50;;;;;;;7.95;61.53;94735.88;29395;219;63005;-59
2024/03/10 01:51:24;;;;;;;0.50;0.50;;;;;;;7.95;61.40;94725.84;29395;197;63009;-57
2024/03/10 01:51:57;;;;;;;0.50;0.50;;;;;;;7.96;61.44;94726.66;29395;232;63005;-57
2024/03/10 01:52:29;;;;;;;0.50;0.50;;;;;;;7.95;61.41;94731.25;29395;202;63009;-57
2024/03/10 01:53:01;;;;;;;0.50;0.50;;;;;;;7.94;61.59;94729.69;29395;202;63005;-58
2024/03/10 01:53:34;;;;;;;0.50;0.50;;;;;;;7.96;61.39;94737.47;29395;280;63012;-57
2024/03/10 01:54:06;;;;;;;0.50;0.50;;;;;;;7.96;61.71;94732.84;29395;254;63004;-57
2024/03/10 01:54:41;;;;;;;0.50;0.50;;;;;;;7.96;61.39;94727.44;29394;258;64013;-70
2024/03/10 01:55:13;;;;;;;0.50;0.50;;;;;;;7.95;61.54;94725.84;29395;236;63004;-57
2024/03/10 01:55:45;;;;;;;0.50;0.50;;;;;;;7.95;61.50;94725.84;29395;228;63025;-57
2024/03/10 01:56:18;;;;;;;0.50;0.50;;;;;;;7.95;61.41;94725.06;29395;267;63004;-57
2024/03/10 01:56:50;;;;;;;0.50;0.50;;;;;;;7.94;61.64;94724.28;29395;225;63008;-57
2024/03/10 01:57:23;;;;;;;0.50;0.50;;;;;;;7.94;61.53;94726.19;29395;214;63005;-57
2024/03/10 01:57:56;;;;;;;0.50;0.50;;;;;;;7.93;61.53;94727.31;29395;238;63009;-57
2024/03/10 01:58:29;;;;;;;0.50;0.50;;;;;;;7.92;61.84;94725.72;29395;216;63005;-57
2024/03/10 01:59:01;;;;;;;0.50;0.50;;;;;;;7.91;61.90;94722.22;29395;221;63019;-57
2024/03/10 01:59:33;;;;;;;0.50;0.50;;;;;;;7.90;61.93;94723.34;29395;221;63005;-57
2024/03/10 02:00:06;;;;;;;0.50;0.50;;;;;;;7.90;61.91;94717.94;29394;203;64013;-57
2024/03/10 02:00:38;;;;;;;0.50;0.50;;;;;;;7.88;62.58;94724.78;29395;212;63005;-57
2024/03/10 02:01:12;;;;;;;0.50;0.50;;;;;;;7.86;62.80;94719.72;29395;208;63025;-57
2024/03/10 02:01:46;;;;;;;0.50;0.50;;;;;;;7.84;62.68;94724.66;29395;249;63004;-58
2024/03/10 02:02:19;;;;;;;0.50;0.50;;;;;;;7.83;62.36;94717.69;29395;204;63009;-57
2024/03/10 02:02:51;;;;;;;0.50;0.50;;;;;;;7.82;64.09;94726.87;29395;251;63004;-57
2024/03/10 02:03:24;;;;;;;0.60;0.60;;;;;;;7.80;63.73;94720.22;29395;280;63008;-56
2024/03/10 02:03:55;;;;;;;0.50;0.50;;;;;;;7.78;63.50;94720.56;29395;274;63004;-57
2024/03/10 02:04:27;;;;;;;0.50;0.50;;;;;;;7.77;63.51;94721.69;29395;259;63008;-57
2024/03/10 02:04:59;;;;;;;0.50;0.50;;;;;;;7.75;63.35;94721.22;29395;248;63005;-57
2024/03/10 02:05:32;;;;;;;0.50;0.50;;;;;;;7.74;63.50;94720.41;29394;219;64014;-58
2024/03/10 02:06:10;;;;;;;0.50;0.50;;;;;;;7.73;63.67;94723.44;29395;239;63005;-58
2024/03/10 02:06:43;;;;;;;0.50;0.50;;;;;;;7.72;64.21;94727.25;29395;243;63009;-57
2024/03/10 02:07:16;;;;;;;0.60;0.60;;;;;;;7.70;63.85;94719.50;29394;253;64009;-57
2024/03/10 02:07:48;;;;;;;0.50;0.50;;;;;;;7.69;64.24;94723.31;29395;225;63009;-58
2024/03/10 02:08:20;;;;;;;0.50;0.50;;;;;;;7.68;64.31;94723.62;29394;213;64009;-57
2024/03/10 02:08:54;;;;;;;0.60;0.60;;;;;;;7.66;64.26;94723.97;29395;229;63009;-57
2024/03/10 02:09:25;;;;;;;0.60;0.60;;;;;;;7.65;64.28;94721.59;29395;197;63004;-56
2024/03/10 02:09:58;;;;;;;0.50;0.50;;;;;;;7.63;64.71;94730.00;29395;227;63009;-57
2024/03/10 02:10:30;;;;;;;0.50;0.50;;;;;;;7.62;64.61;94720.31;29395;242;63004;-57
2024/03/10 02:11:03;;;;;;;0.50;0.50;;;;;;;7.61;65.29;94723.38;29395;241;63008;-57
2024/03/10 02:11:34;;;;;;;0.50;0.50;;;;;;;7.59;64.56;94721.00;29395;231;63004;-57
2024/03/10 02:12:06;;;;;;;0.60;0.60;;;;;;;7.59;64.73;94722.91;29395;220;63009;-58
2024/03/10 02:12:38;;;;;;;0.50;0.50;;;;;;;7.57;65.30;94733.25;29394;233;64009;-57
2024/03/10 02:13:11;;;;;;;0.60;0.60;;;;;;;7.56;65.08;94728.97;29394;212;64003;-57
2024/03/10 02:13:43;;;;;;;0.50;0.50;;;;;;;7.53;64.78;94726.91;29395;197;63005;-57
2024/03/10 02:14:15;;;;;;;0.60;0.60;;;;;;;7.52;65.40;94728.81;29395;234;63009;-57
2024/03/10 02:15:00;;;;;;;0.50;0.50;;;;;;;7.50;65.19;94736.44;29395;239;63005;-57
2024/03/10 02:15:31;;;;;;;0.50;0.50;;;;;;;7.48;65.59;94737.88;29395;203;63024;-57
2024/03/10 02:16:06;;;;;;;0.50;0.50;;;;;;;7.46;65.58;94740.13;29395;222;63004;-57
2024/03/10 02:16:37;;;;;;;0.50;0.50;;;;;;;7.44;66.22;94732.34;29395;197;63009;-57
2024/03/10 02:17:10;;;;;;;0.50;0.50;;;;;;;7.43;65.61;94729.97;29395;220;63004;-56
2024/03/10 02:17:44;;;;;;;0.50;0.50;;;;;;;7.40;65.55;94726.81;29395;212;63023;-57
2024/03/10 02:18:17;;;;;;;0.50;0.50;;;;;;;7.40;65.68;94726.81;29394;235;64009;-57
2024/03/10 02:18:51;;;;;;;0.50;0.50;;;;;;;7.39;65.58;94729.81;29395;234;63008;-58
2024/03/10 02:19:24;;;;;;;0.60;0.60;;;;;;;7.38;66.18;94728.25;29395;207;63005;-57
2024/03/10 02:19:58;;;;;;;0.50;0.50;;;;;;;7.38;66.46;94728.25;29395;213;63009;-57
2024/03/10 02:20:32;;;;;;;0.50;0.50;;;;;;;7.36;65.79;94728.56;29395;222;63005;-57
2024/03/10 02:21:08;;;;;;;0.50;0.50;;;;;;;7.36;66.14;94728.56;29395;202;63015;-57
2024/03/10 02:21:39;;;;;;;0.50;0.50;;;;;;;7.36;66.00;94714.28;29395;242;63005;-58
2024/03/10 02:22:11;;;;;;;0.50;0.50;;;;;;;7.36;67.43;94733.97;29395;196;63009;-57
2024/03/10 02:22:43;;;;;;;0.50;0.50;;;;;;;7.34;66.74;94721.91;29395;234;63005;-57
2024/03/10 02:23:16;;;;;;;0.52;0.52;;;;;;;7.33;66.50;94723.81;29395;266;63009;-57
2024/03/10 02:24:19;;;;;;;0.50;0.50;;;;;;;7.32;66.79;94727.63;29394;253;64009;-56
2024/03/10 02:24:56;;;;;;;0.50;0.50;;;;;;;7.30;66.62;94724.47;29395;197;63009;-58
2024/03/10 02:25:35;;;;;;;0.50;0.50;;;;;;;7.29;66.54;94725.56;29394;220;64009;-57
2024/03/10 02:26:15;;;;;;;0.50;0.50;;;;;;;7.28;68.52;94729.38;29395;279;63008;-57
2024/03/10 02:26:50;;;;;;;0.50;0.50;;;;;;;7.26;67.42;94725.47;29395;216;63005;-56
2024/03/10 02:27:22;;;;;;;0.50;0.50;;;;;;;7.25;67.05;94723.88;29395;246;63009;-57
2024/03/10 02:27:55;;;;;;;0.50;0.50;;;;;;;7.24;66.80;94723.09;29395;277;63015;-58
2024/03/10 02:28:46;;;;;;;0.50;0.50;;;;;;;7.24;66.98;94723.09;29395;228;63009;-57
2024/03/10 02:29:18;;;;;;;0.50;0.50;;;;;;;7.22;68.08;94719.91;29417;247;63005;-57
2024/03/10 02:30:55;;;;;;;0.50;0.50;;;;;;;7.22;67.04;94717.22;29394;274;64009;-57
2024/03/10 02:47:12;;;;;;;0.50;0.50;;;;;;;7.05;68.28;94683.00;29394;227;64009;-57
2024/03/10 02:47:45;;;;;;;0.50;0.50;;;;;;;7.05;68.56;94687.63;29395;326;63009;-58
2024/03/10 02:48:16;;;;;;;0.60;0.60;;;;;;;7.05;68.82;94693.00;29394;215;64004;-57
2024/03/10 02:48:48;;;;;;;0.50;0.50;;;;;;;7.03;68.72;94692.53;29395;267;63008;-57
2024/03/10 02:49:24;;;;;;;0.50;0.50;;;;;;;7.04;68.85;94694.13;29395;222;63005;-57
2024/03/10 02:49:56;;;;;;;0.50;0.50;;;;;;;7.02;69.08;94691.75;29395;260;63026;-57
2024/03/10 02:50:28;;;;;;;0.60;0.60;;;;;;;7.02;69.30;94699.03;29395;217;63005;-57
2024/03/10 02:50:59;;;;;;;0.50;0.50;;;;;;;7.01;68.97;94697.47;29395;319;63009;-56
2024/03/10 02:51:30;;;;;;;0.60;0.60;;;;;;;7.00;69.71;94704.75;29395;225;63005;-57
2024/03/10 02:52:02;;;;;;;0.50;0.50;;;;;;;6.98;70.40;94704.28;29395;276;63009;-57
2024/03/10 02:52:35;;;;;;;0.60;0.60;;;;;;;6.98;70.63;94703.50;29394;198;64009;-57
2024/03/10 02:53:06;;;;;;;0.50;0.50;;;;;;;6.95;70.61;94713.03;29395;229;63009;-57
2024/03/10 02:53:38;;;;;;;0.50;0.50;;;;;;;6.94;70.14;94713.34;29395;222;63007;-58
2024/03/10 02:54:11;;;;;;;0.60;0.60;;;;;;;6.93;69.87;94706.41;29395;215;63009;-57
2024/03/10 02:54:42;;;;;;;0.50;0.50;;;;;;;6.92;70.02;94711.00;29395;224;63004;-56
2024/03/10 02:55:13;;;;;;;0.50;0.50;;;;;;;6.92;70.32;94715.59;29395;276;63008;-57
2024/03/10 02:55:45;;;;;;;0.50;0.50;;;;;;;6.90;69.75;94705.13;29395;221;63004;-57
2024/03/10 02:56:20;;;;;;;0.60;0.60;;;;;;;6.90;69.97;94712.44;29395;243;63008;-57
2024/03/10 02:56:53;;;;;;;0.50;0.50;;;;;;;6.89;69.74;94711.63;29395;198;63004;-57
2024/03/10 02:57:24;;;;;;;0.50;0.50;;;;;;;6.90;69.98;94715.12;29395;209;63014;-57
2024/03/10 02:57:56;;;;;;;0.50;0.50;;;;;;;6.89;70.07;94710.84;29395;197;64009;-57
2024/03/10 02:58:27;;;;;;;0.52;0.52;;;;;;;6.88;70.09;94711.97;29395;225;63009;-57
2024/03/10 02:59:00;;;;;;;0.50;0.50;;;;;;;6.87;70.28;94713.06;29395;204;63005;-56
2024/03/10 02:59:31;;;;;;;0.50;0.50;;;;;;;6.84;71.52;94713.72;29394;207;64009;-57
2024/03/10 03:00:05;;;;;;;0.52;0.52;;;;;;;6.80;70.72;94715.47;29395;239;63005;-57
2024/03/10 03:00:37;;;;;;;0.55;0.55;;;;;;;6.78;70.59;94715.78;29395;250;63009;-57
2024/03/10 03:01:11;;;;;;;0.50;0.50;;;;;;;6.79;70.41;94716.56;29395;208;63004;-57
2024/03/10 03:01:42;;;;;;;0.50;0.50;;;;;;;6.78;71.01;94715.00;29395;202;63009;-57
2024/03/10 03:02:18;;;;;;;0.50;0.50;;;;;;;6.77;71.17;94718.81;29395;279;63004;-57
2024/03/10 03:02:50;;;;;;;0.50;0.50;;;;;;;6.75;71.53;94713.72;29395;221;63009;-56
2024/03/10 03:03:21;;;;;;;0.60;0.60;;;;;;;6.73;70.93;94714.06;29394;208;64009;-57
2024/03/10 03:03:53;;;;;;;0.55;0.55;;;;;;;6.73;70.88;94707.88;29395;213;63015;-57
2024/03/10 03:04:28;;;;;;;0.50;0.50;;;;;;;6.72;71.14;94704.37;29395;199;63004;-57
2024/03/10 03:05:00;;;;;;;0.50;0.50;;;;;;;6.71;71.63;94705.50;29395;236;63009;-57
2024/03/10 03:05:31;;;;;;;0.50;0.50;;;;;;;6.69;71.57;94710.41;29395;199;63005;-57
2024/03/10 03:06:03;;;;;;;0.50;0.50;;;;;;;6.69;71.39;94702.31;29395;288;63009;-57
2024/03/10 03:06:36;;;;;;;6.10;5.80;;;;;;;6.68;71.54;94711.53;29395;213;63005;-57